logo
Rechercher aéroport 
image banner adimage banner adimage banner ad
image banner ad

05VT - Port Of Highgate Springs

Situé à Highgate Springs, United States

ICAO - 05VT, IATA -

Données fournies par Airmate  

Information générale

Coordonnées: N45°0'48" W73°5'12"
Élévation : 68 feet MSL.
 
Voir autres Aéroports à Vermont

Données opérationnelles

Special qualification required
Heure actuelle UTC:
Heure actuelle locale:
Météo à : KFSO - Franklin County State ( 8 km )
METAR: KFSO 142115Z AUTO 31007KT 10SM CLR 25/12 A2982 RMK AO2 T02510120
Voir NOTAMs / SUP AIP / TFR affectant cet aéroport [VIEW]
Fréquences de communication: [VIEW]

Pistes:

Identifiant RWYQFULongueur (ft)Largeur (ft)SurfaceLDA (ft)
H18080CONC
8080CONC

Coordonnées de l'aéroport

Adresse: Highgate Springs United States

Vue satellite de 05VT